Latest Weather Observations for Merimbula

IDN60801

Issued at 12:03 am EST Saturday 23 May 2015 (issued every 30 minutes, with the page automatically refreshed every 10 minutes)

About weather observations | Map of weather stations | Latest weather observations for NSW | Other Formats
Station Details ID: 069147 Name: MERIMBULA AIRPORT AWS Lat: -36.91 Lon: 149.90 Height: 1.5 m
Data from the previous 72 hours. | See also: Recent months at Merimbula
Date/Time
EST
Temp
°C
App
Temp
°C
Dew
Point
Rel
Hum
%
Delta-T
°C
Wind Press
QNH
hPa
Press
MSL
hPa
Rain
since 9 am
mm
Dir
 
Spd
km/h
Gust
km/h
Spd
kts
Gust
kts
23/12:00am 6.5 4.0 5.0 90 0.6 SSW 7 9 4 5 1028.7 1028.7 0.2
 
Date/Time
EST
Temp
°C
App
Temp
°C
Dew
Point
Rel
Hum
%
Delta-T
°C
Wind Press
QNH
hPa
Press
MSL
hPa
Rain
since 9 am
mm
Dir
 
Spd
km/h
Gust
km/h
Spd
kts
Gust
kts
22/11:30pm 6.6 4.3 5.6 93 0.4 SW 7 9 4 5 1028.9 1028.9 0.2
22/11:00pm 6.9 5.6 6.0 94 0.4 W 2 11 1 6 1028.8 1028.8 0.2
22/10:30pm 6.0 4.9 5.0 93 0.4 CALM 0 0 0 0 1029.0 1029.0 0.2
22/10:00pm 6.0 4.8 4.8 92 0.5 CALM 0 0 0 0 1028.9 1028.9 0.2
22/09:30pm 6.5 5.4 5.0 90 0.6 CALM 0 0 0 0 1029.0 1029.0 0.2
22/09:00pm 7.5 6.5 5.5 87 0.9 CALM 0 0 0 0 1029.0 1029.0 0.2
22/08:30pm 7.9 6.8 5.0 82 1.3 CALM 0 0 0 0 1028.9 1028.9 0.2
22/08:00pm 9.9 7.6 5.9 76 1.8 WSW 7 9 4 5 1028.7 1028.7 0.2
22/07:30pm 11.0 8.4 6.2 72 2.2 SW 9 13 5 7 1028.5 1028.5 0.2
22/07:00pm 11.3 8.0 6.6 73 2.2 SW 13 26 7 14 1028.1 1028.1 0.2
22/06:30pm 11.4 8.2 6.9 74 2.1 WSW 13 17 7 9 1027.6 1027.6 0.2
22/06:00pm 11.3 8.7 7.8 79 1.7 SW 11 19 6 10 1027.3 1027.3 0.2
22/05:30pm 11.9 8.3 8.4 79 1.7 SSW 17 26 9 14 1027.3 1027.3 0.2
22/05:00pm 12.4 8.8 8.5 77 1.9 SW 17 24 9 13 1026.9 1026.9 0.2
22/04:30pm 13.1 10.0 9.0 76 2.1 SW 15 20 8 11 1026.5 1026.5 0.2
22/04:00pm 13.6 11.1 9.8 78 1.9 SSW 13 20 7 11 1026.3 1026.3 0.2
22/03:30pm 12.8 10.5 10.3 85 1.3 S 13 20 7 11 1026.0 1026.0 0.2
22/03:17pm 12.8 11.0 10.7 87 1.1 S 11 17 6 9 1025.9 1025.9 0.2
22/03:04pm 12.8 9.8 10.5 86 1.2 S 17 28 9 15 1025.8 1025.8 0.2
22/03:00pm 13.2 10.1 10.4 83 1.4 S 17 28 9 15 1025.8 1025.8 0.2
22/02:37pm 13.3 9.8 10.3 82 1.6 SSW 19 26 10 14 1025.5 1025.5 0.2
22/02:30pm 12.9 9.4 10.1 83 1.4 SSW 19 26 10 14 1025.5 1025.5 0.2
22/02:25pm 13.2 9.8 10.6 84 1.4 SSW 19 28 10 15 1025.5 1025.5 0.2
22/02:00pm 15.4 11.7 9.5 68 3.0 SSW 19 28 10 15 1025.2 1025.2 0.2
22/01:30pm 13.6 9.2 9.1 74 2.3 S 22 37 12 20 1025.3 1025.3 0.2
22/01:00pm 15.1 11.2 8.8 66 3.2 SW 19 28 10 15 1025.0 1025.0 0.2
22/12:30pm 14.8 11.6 9.8 72 2.6 SW 17 24 9 13 1025.3 1025.3 0.2
22/12:00pm 14.7 10.2 8.6 67 3.1 SSW 22 33 12 18 1025.4 1025.4 0.0
22/11:30am 14.9 10.8 7.7 62 3.6 SSW 19 30 10 16 1025.7 1025.7 0.0
22/11:00am 14.4 11.6 8.4 67 3.0 SSW 13 20 7 11 1025.9 1025.9 0.0
22/10:30am 13.9 11.3 9.5 75 2.3 SW 13 19 7 10 1026.0 1026.0 0.0
22/10:00am 13.1 9.8 9.7 80 1.7 SW 17 30 9 16 1025.8 1025.8 0.0
22/09:30am 12.7 8.4 9.2 79 1.8 SW 22 41 12 22 1025.5 1025.5 0.0
22/09:00am 12.3 7.6 9.3 82 1.5 SW 24 35 13 19 1025.2 1025.2 27.4
22/08:30am 11.5 9.0 9.6 88 1.0 SW 13 22 7 12 1025.1 1025.1 27.4
22/08:00am 11.8 7.8 9.0 83 1.4 SW 20 30 11 16 1024.8 1024.8 27.4
22/07:30am 12.0 9.1 8.1 77 1.9 SSW 13 24 7 13 1024.5 1024.5 27.2
22/07:00am 12.1 10.0 8.2 77 1.9 SSW 9 13 5 7 1023.6 1023.6 27.2
22/06:30am 12.1 9.3 8.6 79 1.7 SW 13 22 7 12 1023.3 1023.3 27.2
22/06:00am 12.0 8.5 8.8 81 1.6 SSW 17 32 9 17 1022.7 1022.7 27.2
22/05:30am 12.0 9.0 9.4 84 1.3 SSW 15 20 8 11 1022.4 1022.4 27.2
22/05:00am 12.0 8.8 9.9 87 1.1 SSW 17 24 9 13 1022.3 1022.3 27.2
22/04:30am 12.1 9.5 10.7 91 0.7 SSW 15 22 8 12 1022.1 1022.1 27.2
22/04:04am 12.2 9.7 11.1 93 0.6 SSW 15 20 8 11 1022.1 1022.1 27.2
22/04:00am 12.2 9.4 11.3 94 0.5 SSW 17 30 9 16 1022.1 1022.1 27.2
22/03:30am 12.4 9.7 11.6 95 0.4 SSW 17 24 9 13 1022.0 1022.0 27.2
22/03:21am 12.5 9.8 11.6 94 0.5 SSW 17 30 9 16 1022.0 1022.0 27.2
22/03:07am 12.5 9.4 11.7 95 0.4 SSW 19 28 10 15 1022.0 1022.0 27.0
22/03:00am 12.5 9.8 11.7 95 0.4 SSW 17 28 9 15 1021.9 1021.9 27.0
22/02:48am 12.6 9.9 11.8 95 0.4 SSW 17 24 9 13 1021.9 1021.9 26.8
22/02:30am 12.6 9.6 12.0 96 0.3 SSW 19 28 10 15 1021.9 1021.9 26.6
22/02:13am 12.6 10.0 12.0 96 0.3 SSW 17 26 9 14 1021.9 1021.9 26.6
22/02:00am 12.6 10.4 12.0 96 0.3 SSW 15 24 8 13 1021.9 1021.9 26.6
22/01:33am 12.6 10.7 11.8 95 0.4 SSW 13 20 7 11 1021.9 1021.9 23.4
22/01:30am 12.6 10.7 11.8 95 0.4 SSW 13 20 7 11 1021.9 1021.9 23.4
22/01:02am 12.6 10.7 11.8 95 0.4 SW 13 19 7 10 1021.8 1021.8 23.0
22/01:00am 12.6 11.1 11.8 95 0.4 SW 11 17 6 9 1021.8 1021.8 23.0
22/12:30am 12.7 10.4 11.8 94 0.5 SSW 15 20 8 11 1021.9 1021.9 21.2
22/12:29am 12.6 10.3 11.7 94 0.5 SSW 15 20 8 11 1021.9 1021.9 21.2
22/12:00am 12.6 10.7 11.7 94 0.5 SW 13 17 7 9 1021.8 1021.8 20.8
 
Date/Time
EST
Temp
°C
App
Temp
°C
Dew
Point
Rel
Hum
%
Delta-T
°C
Wind Press
QNH
hPa
Press
MSL
hPa
Rain
since 9 am
mm
Dir
 
Spd
km/h
Gust
km/h
Spd
kts
Gust
kts
21/11:42pm 12.7 10.8 11.8 94 0.5 SSW 13 20 7 11 1021.9 1021.9 20.8
21/11:30pm 12.8 10.5 11.7 93 0.6 SSW 15 22 8 12 1021.9 1021.9 20.6
21/11:26pm 12.8 10.5 11.7 93 0.6 SSW 15 22 8 12 1021.8 1021.8 20.6
21/11:00pm 12.7 10.7 11.4 92 0.7 SW 13 28 7 15 1021.6 1021.6 20.0
21/10:30pm 12.6 11.0 11.5 93 0.6 WSW 11 15 6 8 1021.7 1021.7 20.0
21/10:16pm 12.6 11.4 11.5 93 0.6 SW 9 17 5 9 1021.8 1021.8 19.8
21/10:00pm 12.7 10.4 11.8 94 0.5 SW 15 24 8 13 1021.8 1021.8 19.6
21/09:58pm 12.6 10.3 11.7 94 0.5 SW 15 24 8 13 1021.9 1021.9 19.6
21/09:49pm 12.6 11.0 11.5 93 0.6 SW 11 22 6 12 1021.8 1021.8 19.0
21/09:30pm 12.5 10.9 11.6 94 0.5 SW 11 20 6 11 1021.8 1021.8 18.2
21/09:00pm 12.4 10.4 11.5 94 0.5 WSW 13 20 7 11 1021.8 1021.8 15.8
21/08:30pm 12.3 10.3 11.5 95 0.4 SW 13 17 7 9 1021.8 1021.8 12.2
21/08:00pm 12.3 9.8 11.2 93 0.6 SW 15 20 8 11 1021.4 1021.4 7.4
21/07:30pm 12.6 10.5 11.2 91 0.7 SW 13 20 7 11 1021.3 1021.3 2.8
21/07:14pm 12.9 11.1 10.8 87 1.1 SW 11 20 6 11 1021.3 1021.3 1.0
21/07:00pm 13.2 11.7 10.4 83 1.4 SW 9 15 5 8 1021.1 1021.1 0.4
21/06:30pm 13.8 11.4 10.2 79 1.9 SSW 13 19 7 10 1020.6 1020.6 0.2
21/06:00pm 13.7 11.3 10.1 79 1.9 WSW 13 19 7 10 1020.3 1020.3 0.2
21/05:30pm 13.7 12.2 10.5 81 1.7 WSW 9 15 5 8 1020.4 1020.4 0.2
21/05:00pm 14.8 13.6 10.4 75 2.3 WSW 7 11 4 6 1020.3 1020.3 0.0
21/04:30pm 15.2 13.7 10.4 73 2.5 SSW 9 13 5 7 1020.0 1020.0 0.0
21/04:00pm 15.5 15.7 10.5 72 2.6 CALM 0 0 0 0 1019.8 1019.8 0.0
21/03:30pm 15.9 15.3 10.4 70 2.9 S 4 11 2 6 1019.7 1019.7 0.0
21/03:00pm 16.3 14.8 10.4 68 3.1 SSW 9 15 5 8 1019.4 1019.4 0.0
21/02:30pm 16.5 14.6 10.4 67 3.2 SSW 11 17 6 9 1019.2 1019.2 0.0
21/02:00pm 16.9 14.6 10.3 65 3.5 S 13 17 7 9 1019.1 1019.1 0.0
21/01:30pm 17.4 15.1 10.5 64 3.7 SSW 13 19 7 10 1019.2 1019.2 0.0
21/01:00pm 17.5 15.2 10.4 63 3.8 S 13 19 7 10 1019.4 1019.4 0.0
21/12:30pm 17.4 15.0 10.1 62 3.9 SSW 13 17 7 9 1019.6 1019.6 0.0
21/12:00pm 17.5 13.9 9.9 61 4.0 SSW 19 28 10 15 1019.9 1019.9 0.0
21/11:30am 18.3 15.8 10.9 62 4.0 SSW 15 22 8 12 1020.2 1020.2 0.0
21/11:00am 17.1 14.4 10.5 65 3.5 SSW 15 24 8 13 1020.3 1020.3 0.0
21/10:30am 16.5 14.7 10.8 69 3.0 SSW 11 20 6 11 1020.3 1020.3 0.0
21/10:00am 15.1 14.0 10.1 72 2.6 WSW 6 9 3 5 1019.8 1019.8 0.0
21/09:30am 14.6 13.6 10.4 76 2.2 WSW 6 11 3 6 1019.7 1019.7 0.0
21/09:00am 13.5 12.2 9.9 79 1.8 SW 7 11 4 6 1019.5 1019.5 0.0
21/08:30am 13.0 13.1 10.2 83 1.4 CALM 0 0 0 0 1019.4 1019.4 0.0
21/08:00am 11.3 11.1 9.0 86 1.1 CALM 0 0 0 0 1019.2 1019.2 0.0
21/07:30am 10.5 10.2 8.6 88 0.9 CALM 0 0 0 0 1018.9 1018.9 0.0
21/07:00am 9.8 9.3 7.9 88 0.9 CALM 0 0 0 0 1018.8 1018.8 0.0
21/06:30am 9.4 8.9 8.0 91 0.7 CALM 0 0 0 0 1018.4 1018.4 0.0
21/06:00am 9.1 8.6 7.7 91 0.7 CALM 0 0 0 0 1018.0 1018.0 0.0
21/05:30am 9.5 9.1 8.4 93 0.5 CALM 0 0 0 0 1017.7 1017.7 0.0
21/05:00am 9.0 8.4 7.3 89 0.8 CALM 0 0 0 0 1017.4 1017.4 0.0
21/04:30am 9.2 8.6 7.3 88 0.9 CALM 0 0 0 0 1017.1 1017.1 0.0
21/04:00am 10.3 9.9 8.4 88 0.9 CALM 0 0 0 0 1016.9 1016.9 0.0
21/03:30am 11.1 10.8 8.8 86 1.1 CALM 0 0 0 0 1016.7 1016.7 0.0
21/03:00am 11.3 11.1 9.0 86 1.1 CALM 0 0 0 0 1016.7 1016.7 0.0
21/02:30am 11.9 11.9 9.8 87 1.1 CALM 0 2 0 1 1016.5 1016.5 0.0
21/02:00am 12.4 11.4 10.3 87 1.1 W 6 7 3 4 1016.4 1016.4 0.0
21/01:30am 12.5 11.0 10.6 88 1.0 NW 9 11 5 6 1016.2 1016.2 0.0
21/01:00am 12.3 12.5 10.4 88 1.0 CALM 0 0 0 0 1016.0 1016.0 0.0
21/12:30am 12.4 11.8 10.5 88 1.0 WNW 4 11 2 6 1015.7 1015.7 0.0
21/12:00am 12.0 12.1 10.2 89 0.9 CALM 0 0 0 0 1015.6 1015.6 0.0
 
Date/Time
EST
Temp
°C
App
Temp
°C
Dew
Point
Rel
Hum
%
Delta-T
°C
Wind Press
QNH
hPa
Press
MSL
hPa
Rain
since 9 am
mm
Dir
 
Spd
km/h
Gust
km/h
Spd
kts
Gust
kts
20/11:30pm 12.8 13.2 11.4 91 0.7 CALM 0 0 0 0 1015.5 1015.5 0.0
20/11:00pm 12.4 12.8 11.1 92 0.7 CALM 0 0 0 0 1015.3 1015.3 0.0
20/10:30pm 12.2 12.4 10.6 90 0.8 CALM 0 0 0 0 1015.0 1015.0 0.0
20/10:00pm 12.9 13.4 11.5 91 0.7 CALM 0 0 0 0 1015.0 1015.0 0.0
20/09:30pm 13.1 13.6 11.7 91 0.7 CALM 0 0 0 0 1015.0 1015.0 0.0
20/09:00pm 12.9 13.4 11.5 91 0.7 CALM 0 0 0 0 1014.8 1014.8 0.0
20/08:30pm 13.5 14.2 12.1 91 0.8 CALM 0 0 0 0 1014.4 1014.4 0.0
20/08:00pm 13.5 14.2 12.2 92 0.7 CALM 0 0 0 0 1014.2 1014.2 0.0
20/07:30pm 13.4 14.0 11.8 90 0.9 CALM 0 0 0 0 1013.8 1013.8 0.0
20/07:00pm 14.1 13.7 12.3 89 1.0 NNW 6 9 3 5 1013.4 1013.4 0.0
20/06:30pm 14.5 15.4 12.9 90 0.9 CALM 0 7 0 4 1013.0 1013.0 0.0
20/06:00pm 14.7 14.2 12.7 88 1.1 NNW 7 11 4 6 1012.7 1012.7 0.0
20/05:30pm 15.1 16.0 12.8 86 1.3 CALM 0 0 0 0 1012.4 1012.4 0.0
20/05:00pm 15.7 16.6 13.0 84 1.5 CALM 0 0 0 0 1012.0 1012.0 0.0
20/04:30pm 16.8 17.0 12.9 78 2.2 NW 4 9 2 5 1011.4 1011.4 0.0
20/04:00pm 19.2 20.0 13.6 70 3.2 WSW 2 7 1 4 1011.4 1011.4 0.0
20/03:30pm 19.1 18.4 13.3 69 3.3 SE 9 15 5 8 1011.1 1011.1 0.0
20/03:00pm 20.4 19.7 13.1 63 4.2 SSE 9 13 5 7 1011.0 1011.0 0.0
20/02:30pm 21.7 21.1 13.6 60 4.7 ESE 9 15 5 8 1010.9 1010.9 0.0
20/02:00pm 20.1 19.2 12.6 62 4.2 E 9 13 5 7 1010.9 1010.9 0.0
20/01:30pm 19.1 17.6 13.1 68 3.4 ENE 13 17 7 9 1010.9 1010.9 0.0
20/01:00pm 20.0 18.3 12.5 62 4.2 ENE 13 19 7 10 1011.1 1011.1 0.0
20/12:30pm 20.9 18.7 10.7 52 5.6 NE 13 17 7 9 1011.4 1011.4 0.0
20/12:00pm 22.3 21.4 11.4 50 6.1 NNW 7 11 4 6 1011.6 1011.6 0.0
20/11:30am 21.8 20.0 9.3 45 6.7 NNW 9 15 5 8 1011.7 1011.7 0.0
20/11:00am 21.2 21.2 9.8 48 6.1 CALM 0 0 0 0 1012.3 1012.3 0.0
20/10:30am 20.3 20.5 10.7 54 5.2 CALM 0 0 0 0 1012.6 1012.6 0.0
20/10:00am 19.1 19.5 11.2 60 4.3 CALM 0 0 0 0 1012.7 1012.7 0.0
20/09:30am 17.8 18.0 10.7 63 3.8 CALM 0 0 0 0 1012.5 1012.5 0.0
20/09:00am 14.7 14.8 10.3 75 2.3 CALM 0 0 0 0 1012.6 1012.6 0.6
20/08:30am 11.7 11.6 9.6 87 1.1 CALM 0 2 0 1 1012.6 1012.6 0.6
20/08:00am 10.1 10.0 9.6 97 0.2 CALM 0 0 0 0 1012.5 1012.5 0.6
20/07:30am 7.1 6.3 6.5 96 0.3 CALM 0 0 0 0 1012.5 1012.5 0.6
20/07:00am 6.9 6.0 6.0 94 0.4 CALM 0 0 0 0 1012.0 1012.0 0.6
20/06:30am 7.4 6.6 6.5 94 0.4 CALM 0 0 0 0 1011.9 1011.9 0.6
20/06:00am 7.8 5.4 6.9 94 0.4 S 9 13 5 7 1011.3 1011.3 0.6
20/05:30am 8.2 5.5 7.3 94 0.4 SSW 11 15 6 8 1010.9 1010.9 0.6
20/05:00am 8.3 5.6 7.2 93 0.5 SSW 11 13 6 7 1010.8 1010.8 0.6
20/04:30am 8.6 8.0 7.4 92 0.6 CALM 0 0 0 0 1010.9 1010.9 0.6
20/04:00am 9.1 8.7 8.2 94 0.4 CALM 0 0 0 0 1011.0 1011.0 0.6
20/03:30am 9.5 9.2 8.6 94 0.4 CALM 0 0 0 0 1011.0 1011.0 0.6
20/03:00am 9.9 7.9 8.8 93 0.5 NW 9 13 5 7 1010.9 1010.9 0.6
20/02:30am 10.2 8.4 9.3 94 0.4 NW 9 13 5 7 1010.6 1010.6 0.6
20/02:00am 9.3 8.9 8.2 93 0.5 CALM 0 0 0 0 1010.7 1010.7 0.6
20/01:30am 9.4 9.0 8.2 92 0.6 CALM 0 0 0 0 1010.5 1010.5 0.6
20/01:00am 10.1 9.7 8.4 89 0.8 CALM 0 0 0 0 1010.3 1010.3 0.6
20/12:30am 10.5 8.8 8.4 87 1.0 SW 7 13 4 7 1010.6 1010.6 0.6

Other Formats:

Comma delimited format used in spreadsheet applications
http://www.bom.gov.au/fwo/IDN60801/IDN60801.95929.axf

JavaScript Object Notation format (JSON) in row-major order
http://www.bom.gov.au/fwo/IDN60801/IDN60801.95929.json